sensor_id;sensor_type;location;lat;lon;timestamp;pressure;altitude;pressure_sealevel;temperature;humidity
30873;BME280;17579;42.690;2.586;2023-10-19T00:02:23;95716.63;;;21.91;61.35
30873;BME280;17579;42.690;2.586;2023-10-19T00:04:48;95713.09;;;21.91;61.44
30873;BME280;17579;42.690;2.586;2023-10-19T00:07:56;95713.06;;;21.86;60.72
30873;BME280;17579;42.690;2.586;2023-10-19T00:10:44;95704.81;;;21.92;60.54
30873;BME280;17579;42.690;2.586;2023-10-19T00:13:15;95705.09;;;21.96;60.81
30873;BME280;17579;42.690;2.586;2023-10-19T00:15:44;95701.28;;;21.92;60.92
30873;BME280;17579;42.690;2.586;2023-10-19T00:18:11;95706.66;;;21.92;60.77
30873;BME280;17579;42.690;2.586;2023-10-19T00:20:37;95704.75;;;21.87;60.62
30873;BME280;17579;42.690;2.586;2023-10-19T00:23:17;95701.25;;;21.87;60.08
30873;BME280;17579;42.690;2.586;2023-10-19T00:25:45;95690.16;;;21.83;60.11
30873;BME280;17579;42.690;2.586;2023-10-19T00:28:26;95684.44;;;21.74;60.08
30873;BME280;17579;42.690;2.586;2023-10-19T00:30:53;95685.50;;;21.73;60.68
30873;BME280;17579;42.690;2.586;2023-10-19T00:33:31;95682.78;;;21.68;60.63
30873;BME280;17579;42.690;2.586;2023-10-19T00:36:07;95686.84;;;21.71;60.37
30873;BME280;17579;42.690;2.586;2023-10-19T00:38:55;95669.50;;;21.61;60.75
30873;BME280;17579;42.690;2.586;2023-10-19T00:41:24;95666.06;;;21.66;60.39
30873;BME280;17579;42.690;2.586;2023-10-19T00:43:58;95661.69;;;21.60;60.74
30873;BME280;17579;42.690;2.586;2023-10-19T00:46:24;95654.44;;;21.60;60.89
30873;BME280;17579;42.690;2.586;2023-10-19T00:48:59;95637.94;;;21.52;60.72
30873;BME280;17579;42.690;2.586;2023-10-19T00:51:40;95628.19;;;21.45;59.77
30873;BME280;17579;42.690;2.586;2023-10-19T00:56:45;95615.94;;;21.33;60.73
30873;BME280;17579;42.690;2.586;2023-10-19T00:59:19;95621.25;;;21.27;60.42
30873;BME280;17579;42.690;2.586;2023-10-19T01:01:49;95614.78;;;21.23;60.39
30873;BME280;17579;42.690;2.586;2023-10-19T01:04:22;95614.97;;;21.17;60.94
30873;BME280;17579;42.690;2.586;2023-10-19T01:06:49;95615.50;;;21.14;60.73
30873;BME280;17579;42.690;2.586;2023-10-19T01:09:15;95617.59;;;21.11;61.16
30873;BME280;17579;42.690;2.586;2023-10-19T01:11:58;95631.00;;;21.06;60.78
30873;BME280;17579;42.690;2.586;2023-10-19T01:14:43;95623.47;;;21.08;61.52
30873;BME280;17579;42.690;2.586;2023-10-19T01:17:09;95621.56;;;21.04;61.93
30873;BME280;17579;42.690;2.586;2023-10-19T01:19:40;95618.00;;;20.98;62.37
30873;BME280;17579;42.690;2.586;2023-10-19T01:22:17;95603.75;;;20.98;62.43
30873;BME280;17579;42.690;2.586;2023-10-19T01:24:43;95611.88;;;21.03;62.77
30873;BME280;17579;42.690;2.586;2023-10-19T01:27:09;95604.63;;;21.03;62.76
30873;BME280;17579;42.690;2.586;2023-10-19T01:29:53;95590.63;;;21.01;62.33
30873;BME280;17579;42.690;2.586;2023-10-19T01:32:19;95587.53;;;21.15;63.19
30873;BME280;17579;42.690;2.586;2023-10-19T01:34:48;95577.09;;;21.18;63.13
30873;BME280;17579;42.690;2.586;2023-10-19T01:37:33;95556.97;;;21.26;63.07
30873;BME280;17579;42.690;2.586;2023-10-19T01:40:04;95547.59;;;21.28;63.67
30873;BME280;17579;42.690;2.586;2023-10-19T01:42:30;95521.03;;;21.32;63.44
30873;BME280;17579;42.690;2.586;2023-10-19T01:44:56;95516.19;;;21.34;63.28
30873;BME280;17579;42.690;2.586;2023-10-19T01:47:22;95511.88;;;21.33;63.77
30873;BME280;17579;42.690;2.586;2023-10-19T01:49:48;95530.19;;;21.36;63.78
30873;BME280;17579;42.690;2.586;2023-10-19T01:52:20;95534.25;;;21.39;63.50
30873;BME280;17579;42.690;2.586;2023-10-19T01:54:50;95539.94;;;21.42;63.09
30873;BME280;17579;42.690;2.586;2023-10-19T01:57:35;95536.19;;;21.43;63.22
30873;BME280;17579;42.690;2.586;2023-10-19T02:00:26;95535.56;;;21.36;63.10
30873;BME280;17579;42.690;2.586;2023-10-19T02:02:55;95525.44;;;21.43;62.67
30873;BME280;17579;42.690;2.586;2023-10-19T02:05:41;95524.81;;;21.36;62.98
30873;BME280;17579;42.690;2.586;2023-10-19T02:08:08;95520.28;;;21.42;62.94
30873;BME280;17579;42.690;2.586;2023-10-19T02:10:46;95517.81;;;21.35;62.79
30873;BME280;17579;42.690;2.586;2023-10-19T02:13:12;95519.22;;;21.43;63.00
30873;BME280;17579;42.690;2.586;2023-10-19T02:15:42;95514.34;;;21.40;63.15
30873;BME280;17579;42.690;2.586;2023-10-19T02:18:30;95508.19;;;21.39;63.00
30873;BME280;17579;42.690;2.586;2023-10-19T02:21:04;95505.34;;;21.51;63.58
30873;BME280;17579;42.690;2.586;2023-10-19T02:23:32;95502.94;;;21.55;63.69
30873;BME280;17579;42.690;2.586;2023-10-19T02:26:05;95500.81;;;21.57;63.30
30873;BME280;17579;42.690;2.586;2023-10-19T02:28:31;95486.94;;;21.43;63.75
30873;BME280;17579;42.690;2.586;2023-10-19T02:31:01;95474.53;;;21.37;64.18
30873;BME280;17579;42.690;2.586;2023-10-19T02:33:45;95479.91;;;21.37;63.89
30873;BME280;17579;42.690;2.586;2023-10-19T02:36:18;95480.25;;;21.45;64.14
30873;BME280;17579;42.690;2.586;2023-10-19T02:38:50;95461.69;;;21.49;64.13
30873;BME280;17579;42.690;2.586;2023-10-19T02:41:20;95452.38;;;21.57;64.33
30873;BME280;17579;42.690;2.586;2023-10-19T02:44:02;95449.69;;;21.57;64.09
30873;BME280;17579;42.690;2.586;2023-10-19T02:46:43;95451.19;;;21.48;63.99
30873;BME280;17579;42.690;2.586;2023-10-19T02:49:12;95438.00;;;21.46;64.57
30873;BME280;17579;42.690;2.586;2023-10-19T02:51:59;95429.88;;;21.36;64.50
30873;BME280;17579;42.690;2.586;2023-10-19T02:54:35;95409.53;;;21.45;64.83
30873;BME280;17579;42.690;2.586;2023-10-19T02:57:04;95415.63;;;21.35;65.11
30873;BME280;17579;42.690;2.586;2023-10-19T02:59:41;95427.97;;;21.31;64.92
30873;BME280;17579;42.690;2.586;2023-10-19T03:02:07;95432.31;;;21.37;65.39
30873;BME280;17579;42.690;2.586;2023-10-19T03:04:42;95432.09;;;21.44;65.30
30873;BME280;17579;42.690;2.586;2023-10-19T03:07:11;95430.25;;;21.50;64.88
30873;BME280;17579;42.690;2.586;2023-10-19T03:09:41;95420.63;;;21.54;64.80
30873;BME280;17579;42.690;2.586;2023-10-19T03:12:12;95410.41;;;21.56;64.63
30873;BME280;17579;42.690;2.586;2023-10-19T03:14:39;95411.72;;;21.53;64.78
30873;BME280;17579;42.690;2.586;2023-10-19T03:17:09;95398.50;;;21.46;64.97
30873;BME280;17579;42.690;2.586;2023-10-19T03:19:39;95403.84;;;21.41;64.93
30873;BME280;17579;42.690;2.586;2023-10-19T03:22:07;95395.50;;;21.38;65.18
30873;BME280;17579;42.690;2.586;2023-10-19T03:24:36;95382.84;;;21.38;64.83
30873;BME280;17579;42.690;2.586;2023-10-19T03:27:05;95367.75;;;21.32;65.20
30873;BME280;17579;42.690;2.586;2023-10-19T03:29:38;95369.88;;;21.30;65.36
30873;BME280;17579;42.690;2.586;2023-10-19T03:32:49;95372.88;;;21.34;65.38
30873;BME280;17579;42.690;2.586;2023-10-19T03:35:17;95363.44;;;21.31;64.95
30873;BME280;17579;42.690;2.586;2023-10-19T03:37:48;95344.88;;;21.35;65.56
30873;BME280;17579;42.690;2.586;2023-10-19T03:40:19;95331.44;;;21.29;65.43
30873;BME280;17579;42.690;2.586;2023-10-19T03:42:58;95324.91;;;21.20;65.70
30873;BME280;17579;42.690;2.586;2023-10-19T03:45:23;95317.88;;;21.09;66.26
30873;BME280;17579;42.690;2.586;2023-10-19T03:47:50;95324.56;;;21.06;66.25
30873;BME280;17579;42.690;2.586;2023-10-19T03:50:19;95342.81;;;21.04;66.26
30873;BME280;17579;42.690;2.586;2023-10-19T03:52:50;95363.78;;;21.02;66.27
30873;BME280;17579;42.690;2.586;2023-10-19T03:55:17;95359.22;;;21.03;66.14
30873;BME280;17579;42.690;2.586;2023-10-19T03:57:43;95357.59;;;21.02;66.30
30873;BME280;17579;42.690;2.586;2023-10-19T04:00:10;95364.81;;;20.96;66.13
30873;BME280;17579;42.690;2.586;2023-10-19T04:02:41;95356.72;;;20.91;65.86
30873;BME280;17579;42.690;2.586;2023-10-19T04:05:08;95353.13;;;20.80;65.79
30873;BME280;17579;42.690;2.586;2023-10-19T04:07:39;95359.28;;;20.75;66.02
30873;BME280;17579;42.690;2.586;2023-10-19T04:10:26;95365.94;;;20.68;66.23
30873;BME280;17579;42.690;2.586;2023-10-19T04:13:09;95375.13;;;20.77;66.14
30873;BME280;17579;42.690;2.586;2023-10-19T04:15:35;95381.78;;;20.69;66.12
30873;BME280;17579;42.690;2.586;2023-10-19T04:18:28;95372.44;;;20.50;66.33
30873;BME280;17579;42.690;2.586;2023-10-19T04:20:52;95354.22;;;20.24;67.74
30873;BME280;17579;42.690;2.586;2023-10-19T04:23:39;95367.41;;;20.04;68.45
30873;BME280;17579;42.690;2.586;2023-10-19T04:26:04;95368.66;;;19.96;68.40
30873;BME280;17579;42.690;2.586;2023-10-19T04:28:32;95389.59;;;19.94;68.89
30873;BME280;17579;42.690;2.586;2023-10-19T04:31:04;95379.78;;;20.05;69.52
30873;BME280;17579;42.690;2.586;2023-10-19T04:33:31;95366.97;;;20.12;69.44
30873;BME280;17579;42.690;2.586;2023-10-19T04:36:20;95355.13;;;20.08;68.90
30873;BME280;17579;42.690;2.586;2023-10-19T04:38:50;95335.63;;;20.18;69.07
30873;BME280;17579;42.690;2.586;2023-10-19T04:41:17;95326.56;;;20.24;69.62
30873;BME280;17579;42.690;2.586;2023-10-19T04:43:53;95313.13;;;20.24;69.44
30873;BME280;17579;42.690;2.586;2023-10-19T04:46:20;95324.13;;;20.22;69.53
30873;BME280;17579;42.690;2.586;2023-10-19T04:48:48;95314.16;;;20.18;69.65
30873;BME280;17579;42.690;2.586;2023-10-19T04:51:15;95308.97;;;20.11;69.97
30873;BME280;17579;42.690;2.586;2023-10-19T04:53:45;95304.88;;;20.03;70.31
30873;BME280;17579;42.690;2.586;2023-10-19T04:56:10;95292.59;;;20.07;70.44
30873;BME280;17579;42.690;2.586;2023-10-19T04:58:41;95303.00;;;20.04;70.26
30873;BME280;17579;42.690;2.586;2023-10-19T05:01:12;95285.84;;;20.05;70.08
30873;BME280;17579;42.690;2.586;2023-10-19T05:03:41;95295.47;;;20.01;69.88
30873;BME280;17579;42.690;2.586;2023-10-19T05:06:07;95298.72;;;20.03;70.32
30873;BME280;17579;42.690;2.586;2023-10-19T05:08:35;95302.41;;;19.97;70.39
30873;BME280;17579;42.690;2.586;2023-10-19T05:11:02;95294.59;;;19.95;70.62
30873;BME280;17579;42.690;2.586;2023-10-19T05:16:17;95251.06;;;19.88;70.41
30873;BME280;17579;42.690;2.586;2023-10-19T05:18:42;95247.59;;;19.87;70.83
30873;BME280;17579;42.690;2.586;2023-10-19T05:21:11;95259.38;;;19.86;70.58
30873;BME280;17579;42.690;2.586;2023-10-19T05:23:40;95244.03;;;19.82;70.86
30873;BME280;17579;42.690;2.586;2023-10-19T05:26:06;95249.31;;;19.77;70.98
30873;BME280;17579;42.690;2.586;2023-10-19T05:31:54;95242.50;;;19.91;71.34
30873;BME280;17579;42.690;2.586;2023-10-19T05:34:21;95208.00;;;20.00;71.11
30873;BME280;17579;42.690;2.586;2023-10-19T05:36:50;95221.19;;;20.06;70.77
30873;BME280;17579;42.690;2.586;2023-10-19T05:39:19;95222.75;;;20.02;70.39
30873;BME280;17579;42.690;2.586;2023-10-19T05:41:46;95217.91;;;19.99;70.98
30873;BME280;17579;42.690;2.586;2023-10-19T05:44:14;95209.25;;;19.92;71.21
30873;BME280;17579;42.690;2.586;2023-10-19T05:46:40;95219.13;;;19.86;71.18
30873;BME280;17579;42.690;2.586;2023-10-19T05:49:08;95214.28;;;19.83;71.22
30873;BME280;17579;42.690;2.586;2023-10-19T05:51:45;95202.75;;;19.83;71.78
30873;BME280;17579;42.690;2.586;2023-10-19T05:54:18;95194.31;;;19.74;71.96
30873;BME280;17579;42.690;2.586;2023-10-19T05:56:43;95185.91;;;19.65;72.35
30873;BME280;17579;42.690;2.586;2023-10-19T05:59:11;95185.00;;;19.54;72.99
30873;BME280;17579;42.690;2.586;2023-10-19T06:01:39;95181.97;;;19.46;73.27
30873;BME280;17579;42.690;2.586;2023-10-19T06:04:09;95169.06;;;19.43;73.57
30873;BME280;17579;42.690;2.586;2023-10-19T06:06:36;95175.53;;;19.47;73.72
30873;BME280;17579;42.690;2.586;2023-10-19T06:09:02;95161.03;;;19.43;73.26
30873;BME280;17579;42.690;2.586;2023-10-19T06:11:31;95133.66;;;19.41;73.61
30873;BME280;17579;42.690;2.586;2023-10-19T06:13:57;95125.00;;;19.33;74.04
30873;BME280;17579;42.690;2.586;2023-10-19T06:16:24;95131.19;;;19.34;73.73
30873;BME280;17579;42.690;2.586;2023-10-19T06:18:52;95143.81;;;19.38;74.13
30873;BME280;17579;42.690;2.586;2023-10-19T06:21:22;95145.19;;;19.41;73.90
30873;BME280;17579;42.690;2.586;2023-10-19T06:23:56;95151.59;;;19.40;73.74
30873;BME280;17579;42.690;2.586;2023-10-19T06:26:33;95151.41;;;19.47;73.70
30873;BME280;17579;42.690;2.586;2023-10-19T06:29:19;95152.47;;;19.46;73.26
30873;BME280;17579;42.690;2.586;2023-10-19T06:31:47;95152.03;;;19.54;73.19
30873;BME280;17579;42.690;2.586;2023-10-19T06:34:17;95147.09;;;19.46;73.25
30873;BME280;17579;42.690;2.586;2023-10-19T06:36:44;95130.72;;;19.42;73.58
30873;BME280;17579;42.690;2.586;2023-10-19T06:39:20;95116.75;;;19.40;74.08
30873;BME280;17579;42.690;2.586;2023-10-19T06:41:47;95128.53;;;19.39;73.73
30873;BME280;17579;42.690;2.586;2023-10-19T06:44:16;95154.78;;;19.37;73.86
30873;BME280;17579;42.690;2.586;2023-10-19T06:46:42;95150.22;;;19.37;74.64
30873;BME280;17579;42.690;2.586;2023-10-19T06:49:11;95143.56;;;19.40;74.15
30873;BME280;17579;42.690;2.586;2023-10-19T06:51:37;95155.94;;;19.46;74.30
30873;BME280;17579;42.690;2.586;2023-10-19T06:54:04;95144.19;;;19.47;74.37
30873;BME280;17579;42.690;2.586;2023-10-19T06:56:35;95132.41;;;19.48;74.11
30873;BME280;17579;42.690;2.586;2023-10-19T06:59:03;95134.56;;;19.51;74.06
30873;BME280;17579;42.690;2.586;2023-10-19T07:01:30;95135.16;;;19.59;74.53
30873;BME280;17579;42.690;2.586;2023-10-19T07:03:57;95138.66;;;19.59;74.03
30873;BME280;17579;42.690;2.586;2023-10-19T07:06:31;95130.31;;;19.55;73.80
30873;BME280;17579;42.690;2.586;2023-10-19T07:08:56;95127.91;;;19.59;74.18
30873;BME280;17579;42.690;2.586;2023-10-19T07:11:32;95122.28;;;19.55;73.72
30873;BME280;17579;42.690;2.586;2023-10-19T07:13:59;95099.47;;;19.58;73.57
30873;BME280;17579;42.690;2.586;2023-10-19T07:16:25;95096.25;;;19.56;73.44
30873;BME280;17579;42.690;2.586;2023-10-19T07:18:54;95094.09;;;19.53;73.47
30873;BME280;17579;42.690;2.586;2023-10-19T07:21:23;95103.75;;;19.54;73.74
30873;BME280;17579;42.690;2.586;2023-10-19T07:23:57;95120.38;;;19.56;73.49
30873;BME280;17579;42.690;2.586;2023-10-19T07:26:58;95126.63;;;19.62;73.60
30873;BME280;17579;42.690;2.586;2023-10-19T07:29:48;95119.72;;;19.71;73.07
30873;BME280;17579;42.690;2.586;2023-10-19T07:32:13;95126.00;;;19.82;73.32
30873;BME280;17579;42.690;2.586;2023-10-19T07:34:43;95129.81;;;19.86;72.98
30873;BME280;17579;42.690;2.586;2023-10-19T07:37:15;95143.22;;;19.86;72.74
30873;BME280;17579;42.690;2.586;2023-10-19T07:40:43;95133.59;;;19.90;72.19
30873;BME280;17579;42.690;2.586;2023-10-19T07:43:20;95146.56;;;20.03;72.13
30873;BME280;17579;42.690;2.586;2023-10-19T07:45:50;95134.19;;;19.97;72.08
30873;BME280;17579;42.690;2.586;2023-10-19T07:48:20;95146.50;;;19.98;71.81
30873;BME280;17579;42.690;2.586;2023-10-19T07:50:46;95137.75;;;20.08;71.92
30873;BME280;17579;42.690;2.586;2023-10-19T07:53:14;95114.69;;;20.12;71.14
30873;BME280;17579;42.690;2.586;2023-10-19T07:55:50;95128.63;;;20.09;71.42
30873;BME280;17579;42.690;2.586;2023-10-19T07:58:24;95122.47;;;20.08;71.17
30873;BME280;17579;42.690;2.586;2023-10-19T08:00:59;95116.00;;;20.04;70.64
30873;BME280;17579;42.690;2.586;2023-10-19T08:03:28;95122.34;;;19.93;71.17
30873;BME280;17579;42.690;2.586;2023-10-19T08:05:56;95121.03;;;19.96;71.33
30873;BME280;17579;42.690;2.586;2023-10-19T08:08:24;95121.56;;;19.98;71.49
30873;BME280;17579;42.690;2.586;2023-10-19T08:11:08;95129.94;;;20.01;71.04
30873;BME280;17579;42.690;2.586;2023-10-19T08:13:34;95128.13;;;20.12;71.28
30873;BME280;17579;42.690;2.586;2023-10-19T08:16:02;95138.13;;;20.22;70.97
30873;BME280;17579;42.690;2.586;2023-10-19T08:18:50;95131.94;;;20.21;71.23
30873;BME280;17579;42.690;2.586;2023-10-19T08:21:22;95151.34;;;20.34;70.75
30873;BME280;17579;42.690;2.586;2023-10-19T08:23:48;95136.59;;;20.36;70.24
30873;BME280;17579;42.690;2.586;2023-10-19T08:26:16;95137.69;;;20.40;70.86
30873;BME280;17579;42.690;2.586;2023-10-19T08:28:47;95129.41;;;20.47;70.45
30873;BME280;17579;42.690;2.586;2023-10-19T08:31:20;95122.75;;;20.55;70.42
30873;BME280;17579;42.690;2.586;2023-10-19T08:33:56;95127.31;;;20.59;70.34
30873;BME280;17579;42.690;2.586;2023-10-19T08:36:43;95130.34;;;20.68;70.45
30873;BME280;17579;42.690;2.586;2023-10-19T08:39:17;95141.94;;;20.74;69.16
30873;BME280;17579;42.690;2.586;2023-10-19T08:41:46;95134.16;;;20.77;69.72
30873;BME280;17579;42.690;2.586;2023-10-19T08:44:15;95133.91;;;20.79;69.20
30873;BME280;17579;42.690;2.586;2023-10-19T08:47:05;95131.66;;;20.66;69.32
30873;BME280;17579;42.690;2.586;2023-10-19T08:49:43;95137.88;;;20.71;69.23
30873;BME280;17579;42.690;2.586;2023-10-19T08:52:09;95130.13;;;20.75;68.91
30873;BME280;17579;42.690;2.586;2023-10-19T08:54:36;95127.97;;;20.77;69.32
30873;BME280;17579;42.690;2.586;2023-10-19T08:57:04;95133.38;;;20.87;69.07
30873;BME280;17579;42.690;2.586;2023-10-19T08:59:32;95140.69;;;20.97;68.21
30873;BME280;17579;42.690;2.586;2023-10-19T09:02:02;95152.81;;;21.05;67.86
30873;BME280;17579;42.690;2.586;2023-10-19T09:04:29;95155.03;;;21.23;67.16
30873;BME280;17579;42.690;2.586;2023-10-19T09:06:59;95144.31;;;21.34;66.41
30873;BME280;17579;42.690;2.586;2023-10-19T09:09:28;95135.41;;;21.33;66.83
30873;BME280;17579;42.690;2.586;2023-10-19T09:12:02;95126.31;;;21.39;66.83
30873;BME280;17579;42.690;2.586;2023-10-19T09:14:32;95132.50;;;21.45;66.17
30873;BME280;17579;42.690;2.586;2023-10-19T09:16:59;95137.63;;;21.52;63.99
30873;BME280;17579;42.690;2.586;2023-10-19T09:19:36;95123.38;;;21.56;64.23
30873;BME280;17579;42.690;2.586;2023-10-19T09:22:03;95109.97;;;21.67;64.17
30873;BME280;17579;42.690;2.586;2023-10-19T09:24:29;95098.66;;;21.65;64.55
30873;BME280;17579;42.690;2.586;2023-10-19T09:26:55;95095.72;;;21.61;64.80
30873;BME280;17579;42.690;2.586;2023-10-19T09:29:23;95083.31;;;21.60;65.12
30873;BME280;17579;42.690;2.586;2023-10-19T09:31:51;95066.91;;;21.61;64.24
30873;BME280;17579;42.690;2.586;2023-10-19T09:34:22;95057.22;;;21.60;64.31
30873;BME280;17579;42.690;2.586;2023-10-19T09:36:49;95050.78;;;21.61;63.55
30873;BME280;17579;42.690;2.586;2023-10-19T09:39:23;95049.69;;;21.57;63.06
30873;BME280;17579;42.690;2.586;2023-10-19T09:41:50;95055.63;;;21.59;62.69
30873;BME280;17579;42.690;2.586;2023-10-19T09:44:23;95056.44;;;21.60;62.60
30873;BME280;17579;42.690;2.586;2023-10-19T09:46:51;95048.91;;;21.57;62.17
30873;BME280;17579;42.690;2.586;2023-10-19T09:49:28;95062.88;;;21.54;62.89
30873;BME280;17579;42.690;2.586;2023-10-19T09:52:04;95069.88;;;21.55;63.43
30873;BME280;17579;42.690;2.586;2023-10-19T09:54:54;95075.50;;;21.53;62.45
30873;BME280;17579;42.690;2.586;2023-10-19T10:00:15;95090.50;;;21.28;64.40
30873;BME280;17579;42.690;2.586;2023-10-19T10:02:54;95096.41;;;21.15;64.73
30873;BME280;17579;42.690;2.586;2023-10-19T10:10:39;95113.78;;;20.87;64.20
30873;BME280;17579;42.690;2.586;2023-10-19T10:15:57;95122.66;;;20.92;65.92
30873;BME280;17579;42.690;2.586;2023-10-19T10:18:31;95122.63;;;20.87;66.57
30873;BME280;17579;42.690;2.586;2023-10-19T10:26:03;95120.22;;;20.81;67.43
30873;BME280;17579;42.690;2.586;2023-10-19T10:28:32;95114.81;;;20.75;67.54
30873;BME280;17579;42.690;2.586;2023-10-19T10:31:11;95112.41;;;20.79;67.83
30873;BME280;17579;42.690;2.586;2023-10-19T10:36:06;95117.50;;;20.75;67.72
30873;BME280;17579;42.690;2.586;2023-10-19T10:38:40;95116.69;;;20.75;67.21
30873;BME280;17579;42.690;2.586;2023-10-19T10:41:08;95083.09;;;20.72;67.42
30873;BME280;17579;42.690;2.586;2023-10-19T10:44:05;95044.69;;;20.72;66.70
30873;BME280;17579;42.690;2.586;2023-10-19T10:46:36;94989.38;;;20.86;64.77
30873;BME280;17579;42.690;2.586;2023-10-19T10:49:26;94963.31;;;20.87;63.71
30873;BME280;17579;42.690;2.586;2023-10-19T10:52:38;94966.56;;;21.09;61.45
30873;BME280;17579;42.690;2.586;2023-10-19T10:55:08;95018.22;;;21.32;59.76
30873;BME280;17579;42.690;2.586;2023-10-19T10:57:44;95039.19;;;21.51;59.57
30873;BME280;17579;42.690;2.586;2023-10-19T11:00:12;95034.38;;;21.58;61.46
30873;BME280;17579;42.690;2.586;2023-10-19T11:02:41;95026.03;;;21.54;62.47
30873;BME280;17579;42.690;2.586;2023-10-19T11:05:12;95002.88;;;21.53;62.74
30873;BME280;17579;42.690;2.586;2023-10-19T11:10:26;94988.91;;;21.51;63.18
30873;BME280;17579;42.690;2.586;2023-10-19T11:13:00;94982.97;;;21.44;63.54
30873;BME280;17579;42.690;2.586;2023-10-19T11:15:26;94981.63;;;21.41;63.51
30873;BME280;17579;42.690;2.586;2023-10-19T11:18:03;94980.53;;;21.48;64.41
30873;BME280;17579;42.690;2.586;2023-10-19T11:20:48;94979.75;;;21.78;64.50
30873;BME280;17579;42.690;2.586;2023-10-19T11:23:18;94978.28;;;22.17;63.16
30873;BME280;17579;42.690;2.586;2023-10-19T11:25:46;94987.41;;;22.41;62.52
30873;BME280;17579;42.690;2.586;2023-10-19T11:28:19;94942.06;;;22.54;62.09
30873;BME280;17579;42.690;2.586;2023-10-19T11:30:48;94932.94;;;22.49;61.21
30873;BME280;17579;42.690;2.586;2023-10-19T11:33:18;94909.00;;;22.43;62.00
30873;BME280;17579;42.690;2.586;2023-10-19T11:35:52;94925.97;;;22.43;61.58
30873;BME280;17579;42.690;2.586;2023-10-19T11:38:21;94935.88;;;22.53;62.10
30873;BME280;17579;42.690;2.586;2023-10-19T11:40:49;94922.91;;;22.60;61.87
30873;BME280;17579;42.690;2.586;2023-10-19T11:43:27;94918.88;;;22.58;61.75
30873;BME280;17579;42.690;2.586;2023-10-19T11:45:53;94910.31;;;22.51;61.35
30873;BME280;17579;42.690;2.586;2023-10-19T11:48:54;94929.50;;;22.39;61.64
30873;BME280;17579;42.690;2.586;2023-10-19T11:51:32;94931.63;;;22.42;61.98
30873;BME280;17579;42.690;2.586;2023-10-19T11:54:27;94895.44;;;22.58;62.23
30873;BME280;17579;42.690;2.586;2023-10-19T11:56:56;94896.38;;;22.83;61.85
30873;BME280;17579;42.690;2.586;2023-10-19T11:59:27;94880.34;;;22.97;61.46
30873;BME280;17579;42.690;2.586;2023-10-19T12:02:02;94902.09;;;23.11;60.49
30873;BME280;17579;42.690;2.586;2023-10-19T12:04:29;94891.03;;;23.07;60.21
30873;BME280;17579;42.690;2.586;2023-10-19T12:06:57;94865.50;;;22.99;59.97
30873;BME280;17579;42.690;2.586;2023-10-19T12:09:27;94884.13;;;22.96;60.29
30873;BME280;17579;42.690;2.586;2023-10-19T12:11:56;94903.22;;;23.05;60.45
30873;BME280;17579;42.690;2.586;2023-10-19T12:14:34;94861.09;;;23.14;60.09
30873;BME280;17579;42.690;2.586;2023-10-19T12:17:03;94840.66;;;23.02;60.13
30873;BME280;17579;42.690;2.586;2023-10-19T12:19:33;94840.94;;;23.01;59.58
30873;BME280;17579;42.690;2.586;2023-10-19T12:22:08;94826.50;;;22.92;59.37
30873;BME280;17579;42.690;2.586;2023-10-19T12:24:34;94806.59;;;22.82;59.76
30873;BME280;17579;42.690;2.586;2023-10-19T12:27:09;94788.91;;;22.71;59.88
30873;BME280;17579;42.690;2.586;2023-10-19T12:29:38;94792.81;;;22.60;60.50
30873;BME280;17579;42.690;2.586;2023-10-19T12:32:04;94803.41;;;22.46;60.75
30873;BME280;17579;42.690;2.586;2023-10-19T12:34:33;94805.34;;;22.40;60.75
30873;BME280;17579;42.690;2.586;2023-10-19T12:37:04;94826.91;;;22.30;60.77
30873;BME280;17579;42.690;2.586;2023-10-19T12:39:30;94834.44;;;22.28;60.89
30873;BME280;17579;42.690;2.586;2023-10-19T12:41:56;94816.97;;;22.25;61.04
30873;BME280;17579;42.690;2.586;2023-10-19T12:44:22;94793.84;;;22.24;61.18
30873;BME280;17579;42.690;2.586;2023-10-19T12:46:51;94792.22;;;22.23;61.39
30873;BME280;17579;42.690;2.586;2023-10-19T12:49:23;94797.88;;;22.27;61.19
30873;BME280;17579;42.690;2.586;2023-10-19T12:51:53;94784.63;;;22.30;61.19
30873;BME280;17579;42.690;2.586;2023-10-19T12:54:19;94786.50;;;22.35;60.94
30873;BME280;17579;42.690;2.586;2023-10-19T12:56:45;94777.91;;;22.33;60.70
30873;BME280;17579;42.690;2.586;2023-10-19T12:59:14;94771.75;;;22.33;59.83
30873;BME280;17579;42.690;2.586;2023-10-19T13:01:43;94761.75;;;22.28;59.53
30873;BME280;17579;42.690;2.586;2023-10-19T13:04:16;94752.34;;;22.25;59.18
30873;BME280;17579;42.690;2.586;2023-10-19T13:06:44;94742.13;;;22.33;58.08
30873;BME280;17579;42.690;2.586;2023-10-19T13:09:26;94758.50;;;22.36;58.06
30873;BME280;17579;42.690;2.586;2023-10-19T13:12:08;94762.75;;;22.42;58.16
30873;BME280;17579;42.690;2.586;2023-10-19T13:14:46;94775.34;;;22.52;57.11
30873;BME280;17579;42.690;2.586;2023-10-19T13:17:20;94762.41;;;22.54;58.27
30873;BME280;17579;42.690;2.586;2023-10-19T13:20:06;94771.00;;;22.56;57.58
30873;BME280;17579;42.690;2.586;2023-10-19T13:22:44;94797.91;;;22.61;57.37
30873;BME280;17579;42.690;2.586;2023-10-19T13:25:25;94798.41;;;22.63;57.77
30873;BME280;17579;42.690;2.586;2023-10-19T13:27:51;94804.53;;;22.74;57.15
30873;BME280;17579;42.690;2.586;2023-10-19T13:30:18;94796.19;;;22.76;56.59
30873;BME280;17579;42.690;2.586;2023-10-19T13:32:48;94788.09;;;22.76;56.05
30873;BME280;17579;42.690;2.586;2023-10-19T13:35:14;94758.28;;;22.62;53.62
30873;BME280;17579;42.690;2.586;2023-10-19T13:37:40;94753.13;;;22.65;53.09
30873;BME280;17579;42.690;2.586;2023-10-19T13:40:06;94726.13;;;22.76;51.93
30873;BME280;17579;42.690;2.586;2023-10-19T13:42:38;94732.50;;;22.80;51.67
30873;BME280;17579;42.690;2.586;2023-10-19T13:45:16;94724.72;;;22.78;51.73
30873;BME280;17579;42.690;2.586;2023-10-19T13:47:46;94722.09;;;22.73;52.09
30873;BME280;17579;42.690;2.586;2023-10-19T13:50:12;94693.84;;;22.65;52.80
30873;BME280;17579;42.690;2.586;2023-10-19T13:52:41;94716.03;;;22.57;52.29
30873;BME280;17579;42.690;2.586;2023-10-19T13:55:09;94727.44;;;22.49;53.39
30873;BME280;17579;42.690;2.586;2023-10-19T13:57:38;94740.91;;;22.49;53.63